sensor_id;sensor_type;location;lat;lon;timestamp;temperature;humidity
47626;DHT22;33342;45.574;9.252;2022-11-12T00:00:12;14.50;1.00
47626;DHT22;33342;45.574;9.252;2022-11-12T00:02:58;14.40;1.00
47626;DHT22;33342;45.574;9.252;2022-11-12T00:05:44;14.30;1.00
47626;DHT22;33342;45.574;9.252;2022-11-12T00:08:31;14.30;1.00
47626;DHT22;33342;45.574;9.252;2022-11-12T00:11:16;14.30;1.00
47626;DHT22;33342;45.574;9.252;2022-11-12T00:14:01;14.30;1.00
47626;DHT22;33342;45.574;9.252;2022-11-12T00:16:47;14.20;1.00
47626;DHT22;33342;45.574;9.252;2022-11-12T00:19:32;14.20;1.00
47626;DHT22;33342;45.574;9.252;2022-11-12T00:22:18;14.20;1.00
47626;DHT22;33342;45.574;9.252;2022-11-12T00:25:04;14.10;1.00
47626;DHT22;33342;45.574;9.252;2022-11-12T00:27:50;14.10;1.00
47626;DHT22;33342;45.574;9.252;2022-11-12T00:30:39;14.10;1.00
47626;DHT22;33342;45.574;9.252;2022-11-12T00:33:24;14.10;1.00
47626;DHT22;33342;45.574;9.252;2022-11-12T00:36:10;14.10;1.00
47626;DHT22;33342;45.574;9.252;2022-11-12T00:38:55;14.10;1.00
47626;DHT22;33342;45.574;9.252;2022-11-12T00:41:40;14.10;1.00
47626;DHT22;33342;45.574;9.252;2022-11-12T00:44:26;14.10;1.00
47626;DHT22;33342;45.574;9.252;2022-11-12T00:47:14;14.00;1.00
47626;DHT22;33342;45.574;9.252;2022-11-12T00:50:00;14.00;1.00
47626;DHT22;33342;45.574;9.252;2022-11-12T00:52:45;13.90;1.00
47626;DHT22;33342;45.574;9.252;2022-11-12T00:55:30;13.90;1.00
47626;DHT22;33342;45.574;9.252;2022-11-12T00:58:16;13.90;1.00
47626;DHT22;33342;45.574;9.252;2022-11-12T01:01:10;13.90;1.00
47626;DHT22;33342;45.574;9.252;2022-11-12T01:03:57;13.90;1.00
47626;DHT22;33342;45.574;9.252;2022-11-12T01:06:43;13.90;1.00
47626;DHT22;33342;45.574;9.252;2022-11-12T01:09:29;13.90;1.00
47626;DHT22;33342;45.574;9.252;2022-11-12T01:12:14;13.90;1.00
47626;DHT22;33342;45.574;9.252;2022-11-12T01:15:00;13.80;1.00
47626;DHT22;33342;45.574;9.252;2022-11-12T01:17:46;13.70;1.00
47626;DHT22;33342;45.574;9.252;2022-11-12T01:20:31;13.70;1.00
47626;DHT22;33342;45.574;9.252;2022-11-12T01:23:16;13.70;1.00
47626;DHT22;33342;45.574;9.252;2022-11-12T01:26:09;13.70;1.00
47626;DHT22;33342;45.574;9.252;2022-11-12T01:28:56;13.60;1.00
47626;DHT22;33342;45.574;9.252;2022-11-12T01:31:41;13.60;1.00
47626;DHT22;33342;45.574;9.252;2022-11-12T01:34:26;13.60;1.00
47626;DHT22;33342;45.574;9.252;2022-11-12T01:37:12;13.50;1.00
47626;DHT22;33342;45.574;9.252;2022-11-12T01:39:57;13.50;1.00
47626;DHT22;33342;45.574;9.252;2022-11-12T01:42:42;13.50;1.00
47626;DHT22;33342;45.574;9.252;2022-11-12T01:45:28;13.50;1.00
47626;DHT22;33342;45.574;9.252;2022-11-12T01:48:35;13.50;1.00
47626;DHT22;33342;45.574;9.252;2022-11-12T01:51:24;13.50;1.00
47626;DHT22;33342;45.574;9.252;2022-11-12T01:54:14;13.50;1.00
47626;DHT22;33342;45.574;9.252;2022-11-12T01:57:01;13.50;1.00
47626;DHT22;33342;45.574;9.252;2022-11-12T01:59:48;13.50;1.00
47626;DHT22;33342;45.574;9.252;2022-11-12T02:02:37;13.50;1.00
47626;DHT22;33342;45.574;9.252;2022-11-12T02:05:24;13.50;1.00
47626;DHT22;33342;45.574;9.252;2022-11-12T02:08:11;13.50;1.00
47626;DHT22;33342;45.574;9.252;2022-11-12T02:10:57;13.50;1.00
47626;DHT22;33342;45.574;9.252;2022-11-12T02:13:43;13.50;1.00
47626;DHT22;33342;45.574;9.252;2022-11-12T02:16:45;13.50;1.00
47626;DHT22;33342;45.574;9.252;2022-11-12T02:19:36;13.50;1.00
47626;DHT22;33342;45.574;9.252;2022-11-12T02:22:21;13.50;1.00
47626;DHT22;33342;45.574;9.252;2022-11-12T02:25:10;13.40;1.00
47626;DHT22;33342;45.574;9.252;2022-11-12T02:27:57;13.40;1.00
47626;DHT22;33342;45.574;9.252;2022-11-12T02:30:46;13.40;1.00
47626;DHT22;33342;45.574;9.252;2022-11-12T02:33:31;13.40;1.00
47626;DHT22;33342;45.574;9.252;2022-11-12T02:36:17;13.40;1.00
47626;DHT22;33342;45.574;9.252;2022-11-12T02:39:02;13.40;1.00
47626;DHT22;33342;45.574;9.252;2022-11-12T02:41:48;13.40;1.00
47626;DHT22;33342;45.574;9.252;2022-11-12T02:44:33;13.40;1.00
47626;DHT22;33342;45.574;9.252;2022-11-12T02:47:19;13.40;1.00
47626;DHT22;33342;45.574;9.252;2022-11-12T02:50:04;13.30;1.00
47626;DHT22;33342;45.574;9.252;2022-11-12T02:52:50;13.30;1.00
47626;DHT22;33342;45.574;9.252;2022-11-12T02:55:35;13.30;1.00
47626;DHT22;33342;45.574;9.252;2022-11-12T02:58:21;13.30;1.00
47626;DHT22;33342;45.574;9.252;2022-11-12T03:01:06;13.30;1.00
47626;DHT22;33342;45.574;9.252;2022-11-12T03:03:52;13.30;1.00
47626;DHT22;33342;45.574;9.252;2022-11-12T03:06:38;13.30;1.00
47626;DHT22;33342;45.574;9.252;2022-11-12T03:09:24;13.20;1.00
47626;DHT22;33342;45.574;9.252;2022-11-12T03:12:09;13.20;1.00
47626;DHT22;33342;45.574;9.252;2022-11-12T03:14:55;13.20;1.00
47626;DHT22;33342;45.574;9.252;2022-11-12T03:17:41;13.20;1.00
47626;DHT22;33342;45.574;9.252;2022-11-12T03:20:26;13.20;1.00
47626;DHT22;33342;45.574;9.252;2022-11-12T03:23:12;13.20;1.00
47626;DHT22;33342;45.574;9.252;2022-11-12T03:25:57;13.20;1.00
47626;DHT22;33342;45.574;9.252;2022-11-12T03:28:45;13.10;1.00
47626;DHT22;33342;45.574;9.252;2022-11-12T03:31:31;13.10;1.00
47626;DHT22;33342;45.574;9.252;2022-11-12T03:34:16;13.10;1.00
47626;DHT22;33342;45.574;9.252;2022-11-12T03:37:02;13.10;1.00
47626;DHT22;33342;45.574;9.252;2022-11-12T03:39:47;13.10;1.00
47626;DHT22;33342;45.574;9.252;2022-11-12T03:42:33;13.10;1.00
47626;DHT22;33342;45.574;9.252;2022-11-12T03:45:20;13.10;1.00
47626;DHT22;33342;45.574;9.252;2022-11-12T03:48:06;13.10;1.00
47626;DHT22;33342;45.574;9.252;2022-11-12T03:50:51;13.10;1.00
47626;DHT22;33342;45.574;9.252;2022-11-12T03:53:36;13.10;1.00
47626;DHT22;33342;45.574;9.252;2022-11-12T03:56:22;13.10;1.00
47626;DHT22;33342;45.574;9.252;2022-11-12T03:59:07;13.10;1.00
47626;DHT22;33342;45.574;9.252;2022-11-12T04:01:53;13.10;1.00
47626;DHT22;33342;45.574;9.252;2022-11-12T04:04:39;13.10;1.00
47626;DHT22;33342;45.574;9.252;2022-11-12T04:07:43;13.10;1.00
47626;DHT22;33342;45.574;9.252;2022-11-12T04:10:47;13.00;1.00
47626;DHT22;33342;45.574;9.252;2022-11-12T04:13:33;13.00;1.00
47626;DHT22;33342;45.574;9.252;2022-11-12T04:16:20;13.00;1.00
47626;DHT22;33342;45.574;9.252;2022-11-12T04:19:25;13.00;1.00
47626;DHT22;33342;45.574;9.252;2022-11-12T04:22:29;13.00;1.00
47626;DHT22;33342;45.574;9.252;2022-11-12T04:25:15;12.90;1.00
47626;DHT22;33342;45.574;9.252;2022-11-12T04:28:19;12.90;1.00
47626;DHT22;33342;45.574;9.252;2022-11-12T04:31:04;12.90;1.00
47626;DHT22;33342;45.574;9.252;2022-11-12T04:33:50;12.90;1.00
47626;DHT22;33342;45.574;9.252;2022-11-12T04:36:35;12.90;1.00
47626;DHT22;33342;45.574;9.252;2022-11-12T04:39:21;12.90;1.00
47626;DHT22;33342;45.574;9.252;2022-11-12T04:42:08;12.80;1.00
47626;DHT22;33342;45.574;9.252;2022-11-12T04:45:12;12.80;1.00
47626;DHT22;33342;45.574;9.252;2022-11-12T04:47:57;12.80;1.00
47626;DHT22;33342;45.574;9.252;2022-11-12T04:50:44;12.80;1.00
47626;DHT22;33342;45.574;9.252;2022-11-12T04:53:31;12.70;1.00
47626;DHT22;33342;45.574;9.252;2022-11-12T04:56:16;12.70;99.90
47626;DHT22;33342;45.574;9.252;2022-11-12T04:59:02;12.70;99.90
47626;DHT22;33342;45.574;9.252;2022-11-12T05:01:47;12.70;99.90
47626;DHT22;33342;45.574;9.252;2022-11-12T05:04:32;12.70;99.90
47626;DHT22;33342;45.574;9.252;2022-11-12T05:07:18;12.60;99.90
47626;DHT22;33342;45.574;9.252;2022-11-12T05:10:03;12.60;99.90
47626;DHT22;33342;45.574;9.252;2022-11-12T05:12:49;12.60;99.90
47626;DHT22;33342;45.574;9.252;2022-11-12T05:15:34;12.60;99.90
47626;DHT22;33342;45.574;9.252;2022-11-12T05:18:20;12.60;99.90
47626;DHT22;33342;45.574;9.252;2022-11-12T05:21:05;12.60;99.90
47626;DHT22;33342;45.574;9.252;2022-11-12T05:24:10;12.60;99.90
47626;DHT22;33342;45.574;9.252;2022-11-12T05:27:18;12.60;99.90
47626;DHT22;33342;45.574;9.252;2022-11-12T05:30:04;12.60;99.90
47626;DHT22;33342;45.574;9.252;2022-11-12T05:32:50;12.60;99.90
47626;DHT22;33342;45.574;9.252;2022-11-12T05:35:36;12.60;99.90
47626;DHT22;33342;45.574;9.252;2022-11-12T05:38:21;12.60;99.90
47626;DHT22;33342;45.574;9.252;2022-11-12T05:41:07;12.60;99.90
47626;DHT22;33342;45.574;9.252;2022-11-12T05:43:52;12.60;99.90
47626;DHT22;33342;45.574;9.252;2022-11-12T05:46:38;12.50;99.90
47626;DHT22;33342;45.574;9.252;2022-11-12T05:49:23;12.50;99.90
47626;DHT22;33342;45.574;9.252;2022-11-12T05:52:09;12.50;99.90
47626;DHT22;33342;45.574;9.252;2022-11-12T05:54:54;12.50;99.90
47626;DHT22;33342;45.574;9.252;2022-11-12T05:58:03;12.50;99.90
47626;DHT22;33342;45.574;9.252;2022-11-12T06:00:49;12.40;99.90
47626;DHT22;33342;45.574;9.252;2022-11-12T06:03:34;12.50;99.90
47626;DHT22;33342;45.574;9.252;2022-11-12T06:06:20;12.40;99.90
47626;DHT22;33342;45.574;9.252;2022-11-12T06:09:06;12.40;99.90
47626;DHT22;33342;45.574;9.252;2022-11-12T06:11:51;12.40;99.90
47626;DHT22;33342;45.574;9.252;2022-11-12T06:14:37;12.40;99.90
47626;DHT22;33342;45.574;9.252;2022-11-12T06:17:22;12.40;99.90
47626;DHT22;33342;45.574;9.252;2022-11-12T06:20:08;12.40;99.90
47626;DHT22;33342;45.574;9.252;2022-11-12T06:22:53;12.40;99.90
47626;DHT22;33342;45.574;9.252;2022-11-12T06:25:40;12.50;99.90
47626;DHT22;33342;45.574;9.252;2022-11-12T06:28:25;12.50;99.90
47626;DHT22;33342;45.574;9.252;2022-11-12T06:31:12;12.50;99.90
47626;DHT22;33342;45.574;9.252;2022-11-12T06:33:57;12.50;99.90
47626;DHT22;33342;45.574;9.252;2022-11-12T06:36:43;12.50;99.90
47626;DHT22;33342;45.574;9.252;2022-11-12T06:39:28;12.50;99.90
47626;DHT22;33342;45.574;9.252;2022-11-12T06:42:14;12.50;99.90
47626;DHT22;33342;45.574;9.252;2022-11-12T06:45:00;12.50;99.90
47626;DHT22;33342;45.574;9.252;2022-11-12T06:47:45;12.50;99.90
47626;DHT22;33342;45.574;9.252;2022-11-12T06:50:31;12.50;99.90
47626;DHT22;33342;45.574;9.252;2022-11-12T06:53:16;12.50;99.90
47626;DHT22;33342;45.574;9.252;2022-11-12T06:56:03;12.50;99.90
47626;DHT22;33342;45.574;9.252;2022-11-12T06:58:49;12.40;99.90
47626;DHT22;33342;45.574;9.252;2022-11-12T07:01:34;12.50;99.90
47626;DHT22;33342;45.574;9.252;2022-11-12T07:04:20;12.50;99.90
47626;DHT22;33342;45.574;9.252;2022-11-12T07:07:05;12.50;99.90
47626;DHT22;33342;45.574;9.252;2022-11-12T07:09:54;12.50;99.90
47626;DHT22;33342;45.574;9.252;2022-11-12T07:12:40;12.50;99.90
47626;DHT22;33342;45.574;9.252;2022-11-12T07:15:25;12.50;99.90
47626;DHT22;33342;45.574;9.252;2022-11-12T07:18:11;12.50;99.90
47626;DHT22;33342;45.574;9.252;2022-11-12T07:20:58;12.50;99.90
47626;DHT22;33342;45.574;9.252;2022-11-12T07:23:44;12.60;99.90
47626;DHT22;33342;45.574;9.252;2022-11-12T07:26:30;12.60;99.90
47626;DHT22;33342;45.574;9.252;2022-11-12T07:29:15;12.60;99.90
47626;DHT22;33342;45.574;9.252;2022-11-12T07:32:20;12.50;99.90
47626;DHT22;33342;45.574;9.252;2022-11-12T07:35:05;12.60;99.90
47626;DHT22;33342;45.574;9.252;2022-11-12T07:37:51;12.60;99.90
47626;DHT22;33342;45.574;9.252;2022-11-12T07:40:43;12.60;99.90
47626;DHT22;33342;45.574;9.252;2022-11-12T07:43:30;12.60;99.90
47626;DHT22;33342;45.574;9.252;2022-11-12T07:46:18;12.60;99.90
47626;DHT22;33342;45.574;9.252;2022-11-12T07:49:03;12.60;99.90
47626;DHT22;33342;45.574;9.252;2022-11-12T07:51:49;12.70;99.90
47626;DHT22;33342;45.574;9.252;2022-11-12T07:54:34;12.70;99.90
47626;DHT22;33342;45.574;9.252;2022-11-12T07:57:19;12.70;99.90
47626;DHT22;33342;45.574;9.252;2022-11-12T08:00:05;12.80;99.90
47626;DHT22;33342;45.574;9.252;2022-11-12T08:02:51;12.80;99.90
47626;DHT22;33342;45.574;9.252;2022-11-12T08:05:36;12.80;99.90
47626;DHT22;33342;45.574;9.252;2022-11-12T08:08:22;12.80;99.90
47626;DHT22;33342;45.574;9.252;2022-11-12T08:11:07;12.80;99.90
47626;DHT22;33342;45.574;9.252;2022-11-12T08:13:53;12.80;99.90
47626;DHT22;33342;45.574;9.252;2022-11-12T08:16:38;12.80;99.90
47626;DHT22;33342;45.574;9.252;2022-11-12T08:19:23;12.80;99.90
47626;DHT22;33342;45.574;9.252;2022-11-12T08:22:09;12.80;99.90
47626;DHT22;33342;45.574;9.252;2022-11-12T08:24:54;12.80;99.90
47626;DHT22;33342;45.574;9.252;2022-11-12T08:27:40;12.80;99.90
47626;DHT22;33342;45.574;9.252;2022-11-12T08:30:26;12.80;99.90
47626;DHT22;33342;45.574;9.252;2022-11-12T08:33:12;12.90;99.90
47626;DHT22;33342;45.574;9.252;2022-11-12T08:36:00;12.90;99.90
47626;DHT22;33342;45.574;9.252;2022-11-12T08:38:46;12.90;99.90
47626;DHT22;33342;45.574;9.252;2022-11-12T08:41:31;12.90;99.90
47626;DHT22;33342;45.574;9.252;2022-11-12T08:44:17;12.90;99.90
47626;DHT22;33342;45.574;9.252;2022-11-12T08:47:03;12.90;99.90
47626;DHT22;33342;45.574;9.252;2022-11-12T08:49:48;13.00;99.90
47626;DHT22;33342;45.574;9.252;2022-11-12T08:52:33;13.00;99.90
47626;DHT22;33342;45.574;9.252;2022-11-12T08:55:19;13.00;99.90
47626;DHT22;33342;45.574;9.252;2022-11-12T08:58:04;13.00;99.90
47626;DHT22;33342;45.574;9.252;2022-11-12T09:00:50;13.10;99.90
47626;DHT22;33342;45.574;9.252;2022-11-12T09:03:35;13.20;99.90
47626;DHT22;33342;45.574;9.252;2022-11-12T09:06:21;13.30;99.90
47626;DHT22;33342;45.574;9.252;2022-11-12T09:09:06;13.30;99.90
47626;DHT22;33342;45.574;9.252;2022-11-12T09:11:51;13.40;99.90
47626;DHT22;33342;45.574;9.252;2022-11-12T09:14:36;13.40;99.90
47626;DHT22;33342;45.574;9.252;2022-11-12T09:17:22;13.50;99.90
47626;DHT22;33342;45.574;9.252;2022-11-12T09:20:07;13.50;99.90
47626;DHT22;33342;45.574;9.252;2022-11-12T09:22:59;13.50;99.90
47626;DHT22;33342;45.574;9.252;2022-11-12T09:25:44;13.60;99.90
47626;DHT22;33342;45.574;9.252;2022-11-12T09:28:30;13.60;99.90
47626;DHT22;33342;45.574;9.252;2022-11-12T09:31:16;13.60;99.90
47626;DHT22;33342;45.574;9.252;2022-11-12T09:34:01;13.70;99.90
47626;DHT22;33342;45.574;9.252;2022-11-12T09:36:47;13.80;99.90
47626;DHT22;33342;45.574;9.252;2022-11-12T09:39:32;13.80;99.90
47626;DHT22;33342;45.574;9.252;2022-11-12T09:42:21;13.80;99.90
47626;DHT22;33342;45.574;9.252;2022-11-12T09:45:33;13.90;99.90
47626;DHT22;33342;45.574;9.252;2022-11-12T09:48:23;13.90;99.90
47626;DHT22;33342;45.574;9.252;2022-11-12T09:51:32;14.00;99.90
47626;DHT22;33342;45.574;9.252;2022-11-12T09:54:31;14.00;99.90
47626;DHT22;33342;45.574;9.252;2022-11-12T09:57:17;14.00;99.90
47626;DHT22;33342;45.574;9.252;2022-11-12T10:00:08;14.10;99.90
47626;DHT22;33342;45.574;9.252;2022-11-12T10:03:16;14.10;99.90
47626;DHT22;33342;45.574;9.252;2022-11-12T10:09:30;14.30;99.90
47626;DHT22;33342;45.574;9.252;2022-11-12T10:19:59;14.50;99.90
47626;DHT22;33342;45.574;9.252;2022-11-12T10:25:31;14.60;99.90
47626;DHT22;33342;45.574;9.252;2022-11-12T10:28:32;14.60;99.90
47626;DHT22;33342;45.574;9.252;2022-11-12T10:31:23;14.60;99.90
47626;DHT22;33342;45.574;9.252;2022-11-12T10:34:17;14.70;99.90
47626;DHT22;33342;45.574;9.252;2022-11-12T10:37:14;14.70;99.90
47626;DHT22;33342;45.574;9.252;2022-11-12T10:46:22;14.70;99.90
47626;DHT22;33342;45.574;9.252;2022-11-12T10:51:59;14.80;99.90
47626;DHT22;33342;45.574;9.252;2022-11-12T10:54:45;14.90;99.90
47626;DHT22;33342;45.574;9.252;2022-11-12T10:57:36;14.90;99.90
47626;DHT22;33342;45.574;9.252;2022-11-12T11:00:22;14.90;99.90
47626;DHT22;33342;45.574;9.252;2022-11-12T11:03:18;15.00;99.90
47626;DHT22;33342;45.574;9.252;2022-11-12T11:09:15;15.00;99.90
47626;DHT22;33342;45.574;9.252;2022-11-12T11:12:01;15.10;99.90
47626;DHT22;33342;45.574;9.252;2022-11-12T11:17:55;15.20;99.90
47626;DHT22;33342;45.574;9.252;2022-11-12T11:20:44;15.20;99.90
47626;DHT22;33342;45.574;9.252;2022-11-12T11:44:53;15.50;99.90
47626;DHT22;33342;45.574;9.252;2022-11-12T11:47:58;15.50;99.90
47626;DHT22;33342;45.574;9.252;2022-11-12T11:54:33;15.60;99.90
47626;DHT22;33342;45.574;9.252;2022-11-12T11:57:28;15.60;99.90
47626;DHT22;33342;45.574;9.252;2022-11-12T12:00:20;15.60;99.90
47626;DHT22;33342;45.574;9.252;2022-11-12T12:03:25;15.60;99.90
47626;DHT22;33342;45.574;9.252;2022-11-12T12:06:26;15.70;99.90
47626;DHT22;33342;45.574;9.252;2022-11-12T12:15:36;15.70;99.90
47626;DHT22;33342;45.574;9.252;2022-11-12T12:21:34;15.70;99.90
47626;DHT22;33342;45.574;9.252;2022-11-12T12:24:27;15.70;99.90
47626;DHT22;33342;45.574;9.252;2022-11-12T12:27:17;15.70;99.90
47626;DHT22;33342;45.574;9.252;2022-11-12T12:30:25;15.80;99.90
47626;DHT22;33342;45.574;9.252;2022-11-12T12:36:11;15.80;99.90
47626;DHT22;33342;45.574;9.252;2022-11-12T12:42:10;15.80;99.90
47626;DHT22;33342;45.574;9.252;2022-11-12T12:45:01;15.80;99.90
47626;DHT22;33342;45.574;9.252;2022-11-12T12:47:53;15.80;99.90
47626;DHT22;33342;45.574;9.252;2022-11-12T12:50:40;15.90;99.90
47626;DHT22;33342;45.574;9.252;2022-11-12T12:58:57;15.90;99.90
47626;DHT22;33342;45.574;9.252;2022-11-12T13:02:01;16.00;99.90
47626;DHT22;33342;45.574;9.252;2022-11-12T13:04:53;16.00;99.90
47626;DHT22;33342;45.574;9.252;2022-11-12T13:07:44;16.10;99.90
47626;DHT22;33342;45.574;9.252;2022-11-12T13:13:36;16.20;99.90
47626;DHT22;33342;45.574;9.252;2022-11-12T13:25:29;16.20;99.90
47626;DHT22;33342;45.574;9.252;2022-11-12T13:28:15;16.30;99.90
47626;DHT22;33342;45.574;9.252;2022-11-12T13:31:02;16.20;99.90
47626;DHT22;33342;45.574;9.252;2022-11-12T13:33:48;16.20;99.90
47626;DHT22;33342;45.574;9.252;2022-11-12T13:36:33;16.10;99.90
47626;DHT22;33342;45.574;9.252;2022-11-12T13:39:20;16.10;99.90
47626;DHT22;33342;45.574;9.252;2022-11-12T13:42:15;16.10;99.90
47626;DHT22;33342;45.574;9.252;2022-11-12T13:45:23;16.00;99.90
47626;DHT22;33342;45.574;9.252;2022-11-12T13:48:16;16.00;99.90
47626;DHT22;33342;45.574;9.252;2022-11-12T13:54:45;16.00;99.90
47626;DHT22;33342;45.574;9.252;2022-11-12T13:57:31;16.10;99.90
47626;DHT22;33342;45.574;9.252;2022-11-12T14:03:05;16.10;99.90
47626;DHT22;33342;45.574;9.252;2022-11-12T14:05:50;16.10;99.90
47626;DHT22;33342;45.574;9.252;2022-11-12T14:09:11;16.10;99.90
47626;DHT22;33342;45.574;9.252;2022-11-12T14:15:17;16.00;99.90
47626;DHT22;33342;45.574;9.252;2022-11-12T14:18:36;16.10;99.90
47626;DHT22;33342;45.574;9.252;2022-11-12T14:21:25;16.00;99.90
47626;DHT22;33342;45.574;9.252;2022-11-12T14:24:11;16.00;99.90
47626;DHT22;33342;45.574;9.252;2022-11-12T14:26:57;16.00;99.90
47626;DHT22;33342;45.574;9.252;2022-11-12T14:29:42;16.00;99.90
47626;DHT22;33342;45.574;9.252;2022-11-12T14:32:35;16.00;99.90
47626;DHT22;33342;45.574;9.252;2022-11-12T14:41:31;16.00;99.90
47626;DHT22;33342;45.574;9.252;2022-11-12T14:44:23;15.90;99.90
47626;DHT22;33342;45.574;9.252;2022-11-12T14:47:10;15.90;99.90
47626;DHT22;33342;45.574;9.252;2022-11-12T14:49:56;15.90;99.90
47626;DHT22;33342;45.574;9.252;2022-11-12T14:52:43;15.80;99.90
47626;DHT22;33342;45.574;9.252;2022-11-12T14:55:33;15.80;99.90
47626;DHT22;33342;45.574;9.252;2022-11-12T14:58:21;15.80;99.90
47626;DHT22;33342;45.574;9.252;2022-11-12T15:01:35;15.80;99.90
47626;DHT22;33342;45.574;9.252;2022-11-12T15:04:51;15.80;99.90
47626;DHT22;33342;45.574;9.252;2022-11-12T15:08:00;15.80;99.90
47626;DHT22;33342;45.574;9.252;2022-11-12T15:10:46;15.70;99.90
47626;DHT22;33342;45.574;9.252;2022-11-12T15:13:37;15.70;99.90
47626;DHT22;33342;45.574;9.252;2022-11-12T15:16:30;15.70;99.90
47626;DHT22;33342;45.574;9.252;2022-11-12T15:22:18;15.60;99.90
47626;DHT22;33342;45.574;9.252;2022-11-12T15:25:30;15.60;99.90
47626;DHT22;33342;45.574;9.252;2022-11-12T15:28:23;15.60;99.90
47626;DHT22;33342;45.574;9.252;2022-11-12T15:31:18;15.60;99.90
47626;DHT22;33342;45.574;9.252;2022-11-12T15:40:16;15.50;99.90
47626;DHT22;33342;45.574;9.252;2022-11-12T15:43:09;15.50;99.90
47626;DHT22;33342;45.574;9.252;2022-11-12T15:45:55;15.50;99.90
47626;DHT22;33342;45.574;9.252;2022-11-12T15:48:41;15.50;99.90
47626;DHT22;33342;45.574;9.252;2022-11-12T15:51:27;15.40;99.90
47626;DHT22;33342;45.574;9.252;2022-11-12T15:54:12;15.40;99.90
47626;DHT22;33342;45.574;9.252;2022-11-12T15:56:57;15.40;99.90
47626;DHT22;33342;45.574;9.252;2022-11-12T15:59:44;15.40;99.90
47626;DHT22;33342;45.574;9.252;2022-11-12T16:02:30;15.30;99.90
47626;DHT22;33342;45.574;9.252;2022-11-12T16:05:17;15.30;99.90
47626;DHT22;33342;45.574;9.252;2022-11-12T16:08:03;15.30;99.90
47626;DHT22;33342;45.574;9.252;2022-11-12T16:10:49;15.30;99.90
47626;DHT22;33342;45.574;9.252;2022-11-12T16:13:35;15.30;99.90
47626;DHT22;33342;45.574;9.252;2022-11-12T16:16:21;15.20;99.90
47626;DHT22;33342;45.574;9.252;2022-11-12T16:19:11;15.20;99.90
47626;DHT22;33342;45.574;9.252;2022-11-12T16:22:02;15.20;99.90
47626;DHT22;33342;45.574;9.252;2022-11-12T16:24:48;15.20;99.90
47626;DHT22;33342;45.574;9.252;2022-11-12T16:27:33;15.20;99.90
47626;DHT22;33342;45.574;9.252;2022-11-12T16:30:31;15.20;99.90
47626;DHT22;33342;45.574;9.252;2022-11-12T16:33:17;15.20;99.90
47626;DHT22;33342;45.574;9.252;2022-11-12T16:36:12;15.20;99.90
47626;DHT22;33342;45.574;9.252;2022-11-12T16:38:59;15.10;99.90
47626;DHT22;33342;45.574;9.252;2022-11-12T16:41:44;15.10;99.90
47626;DHT22;33342;45.574;9.252;2022-11-12T16:44:29;15.10;99.90
47626;DHT22;33342;45.574;9.252;2022-11-12T16:47:15;15.00;99.90
47626;DHT22;33342;45.574;9.252;2022-11-12T16:50:00;15.10;99.90
47626;DHT22;33342;45.574;9.252;2022-11-12T16:52:46;15.00;99.90
47626;DHT22;33342;45.574;9.252;2022-11-12T16:55:31;15.00;99.90
47626;DHT22;33342;45.574;9.252;2022-11-12T16:58:17;15.00;99.90
47626;DHT22;33342;45.574;9.252;2022-11-12T17:01:02;15.00;99.90
47626;DHT22;33342;45.574;9.252;2022-11-12T17:03:51;14.90;99.90
47626;DHT22;33342;45.574;9.252;2022-11-12T17:06:39;14.90;99.90
47626;DHT22;33342;45.574;9.252;2022-11-12T17:09:25;14.90;99.90
47626;DHT22;33342;45.574;9.252;2022-11-12T17:12:10;14.90;99.90
47626;DHT22;33342;45.574;9.252;2022-11-12T17:14:56;14.90;99.90
47626;DHT22;33342;45.574;9.252;2022-11-12T17:17:41;14.90;99.90
47626;DHT22;33342;45.574;9.252;2022-11-12T17:20:27;14.90;99.90
47626;DHT22;33342;45.574;9.252;2022-11-12T17:23:12;14.90;99.90
47626;DHT22;33342;45.574;9.252;2022-11-12T17:26:04;14.90;99.90
47626;DHT22;33342;45.574;9.252;2022-11-12T17:28:50;14.90;99.90
47626;DHT22;33342;45.574;9.252;2022-11-12T17:31:47;14.90;99.90
47626;DHT22;33342;45.574;9.252;2022-11-12T17:34:33;14.80;99.90
47626;DHT22;33342;45.574;9.252;2022-11-12T17:37:19;14.80;99.90
47626;DHT22;33342;45.574;9.252;2022-11-12T17:40:05;14.80;99.90
47626;DHT22;33342;45.574;9.252;2022-11-12T17:42:51;14.80;99.90
47626;DHT22;33342;45.574;9.252;2022-11-12T17:45:37;14.80;99.90
47626;DHT22;33342;45.574;9.252;2022-11-12T17:48:23;14.80;99.90
47626;DHT22;33342;45.574;9.252;2022-11-12T17:51:14;14.80;99.90
47626;DHT22;33342;45.574;9.252;2022-11-12T17:53:59;14.80;99.90
47626;DHT22;33342;45.574;9.252;2022-11-12T17:56:45;14.80;99.90
47626;DHT22;33342;45.574;9.252;2022-11-12T17:59:30;14.80;99.90
47626;DHT22;33342;45.574;9.252;2022-11-12T18:02:16;14.80;99.90
47626;DHT22;33342;45.574;9.252;2022-11-12T18:05:01;14.80;99.90
47626;DHT22;33342;45.574;9.252;2022-11-12T18:07:46;14.80;99.90
47626;DHT22;33342;45.574;9.252;2022-11-12T18:10:32;14.80;99.90
47626;DHT22;33342;45.574;9.252;2022-11-12T18:13:17;14.80;99.90
47626;DHT22;33342;45.574;9.252;2022-11-12T18:16:16;14.80;99.90
47626;DHT22;33342;45.574;9.252;2022-11-12T18:19:02;14.80;99.90
47626;DHT22;33342;45.574;9.252;2022-11-12T18:21:48;14.80;99.90
47626;DHT22;33342;45.574;9.252;2022-11-12T18:24:33;14.80;99.90
47626;DHT22;33342;45.574;9.252;2022-11-12T18:27:19;14.80;99.90
47626;DHT22;33342;45.574;9.252;2022-11-12T18:30:05;14.80;99.90
47626;DHT22;33342;45.574;9.252;2022-11-12T18:32:51;14.80;99.90
47626;DHT22;33342;45.574;9.252;2022-11-12T18:35:36;14.80;99.90
47626;DHT22;33342;45.574;9.252;2022-11-12T18:38:21;14.80;99.90
47626;DHT22;33342;45.574;9.252;2022-11-12T18:41:12;14.80;99.90
47626;DHT22;33342;45.574;9.252;2022-11-12T18:43:59;14.70;99.90
47626;DHT22;33342;45.574;9.252;2022-11-12T18:46:45;14.70;99.90
47626;DHT22;33342;45.574;9.252;2022-11-12T18:49:30;14.70;99.90
47626;DHT22;33342;45.574;9.252;2022-11-12T18:52:16;14.70;99.90
47626;DHT22;33342;45.574;9.252;2022-11-12T18:55:01;14.70;99.90
47626;DHT22;33342;45.574;9.252;2022-11-12T18:57:48;14.70;99.90
47626;DHT22;33342;45.574;9.252;2022-11-12T19:00:33;14.70;99.90
47626;DHT22;33342;45.574;9.252;2022-11-12T19:03:19;14.70;99.90
47626;DHT22;33342;45.574;9.252;2022-11-12T19:06:05;14.70;99.90
47626;DHT22;33342;45.574;9.252;2022-11-12T19:08:57;14.70;99.90
47626;DHT22;33342;45.574;9.252;2022-11-12T19:11:43;14.60;99.90
47626;DHT22;33342;45.574;9.252;2022-11-12T19:14:29;14.60;99.90
47626;DHT22;33342;45.574;9.252;2022-11-12T19:17:14;14.60;99.90
47626;DHT22;33342;45.574;9.252;2022-11-12T19:20:00;14.60;99.90
47626;DHT22;33342;45.574;9.252;2022-11-12T19:22:45;14.60;99.90
47626;DHT22;33342;45.574;9.252;2022-11-12T19:25:30;14.60;99.90
47626;DHT22;33342;45.574;9.252;2022-11-12T19:28:18;14.60;99.90
47626;DHT22;33342;45.574;9.252;2022-11-12T19:31:23;14.60;99.90
47626;DHT22;33342;45.574;9.252;2022-11-12T19:34:09;14.60;99.90
47626;DHT22;33342;45.574;9.252;2022-11-12T19:36:54;14.60;99.90
47626;DHT22;33342;45.574;9.252;2022-11-12T19:40:00;14.50;99.90